Time;durP1;ratioP1;P1;durP2;ratioP2;P2;SDS_P1;SDS_P2;PMS_P1;PMS_P2;Temp;Humidity;BMP_temperature;BMP_pressure;BME280_temperature;BME280_humidity;BME280_pressure;Samples;Min_cycle;Max_cycle;Signal;HPM_P1;HPM_P2
2023/03/16 00:00:20;;;;;;;6.13;5.50;;;;;;;1.48;57.03;101407.81;682906;28;1257;-82
2023/03/16 00:00:41;;;;;;;6.53;5.72;;;;;;;1.44;57.50;101395.50;688347;28;1274;-82
2023/03/16 00:01:06;;;;;;;6.15;5.55;;;;;;;1.40;57.41;101390.91;677624;29;1122;-82
2023/03/16 00:01:26;;;;;;;6.55;5.90;;;;;;;1.40;57.37;101381.50;683056;29;1136;-82
2023/03/16 00:01:47;;;;;;;7.82;5.85;;;;;;;1.44;57.36;101395.50;683088;28;1110;-83
2023/03/16 00:02:09;;;;;;;7.67;5.97;;;;;;;1.53;57.32;101414.22;688219;28;1250;-82
2023/03/16 00:02:30;;;;;;;6.63;5.30;;;;;;;1.43;57.30;101398.84;688327;28;1204;-83
2023/03/16 00:03:07;;;;;;;6.45;4.90;;;;;;;1.54;57.42;101412.53;677846;29;1175;-82
2023/03/16 00:03:29;;;;;;;8.15;5.18;;;;;;;1.36;57.01;101393.25;683017;29;1168;-82
2023/03/16 00:03:49;;;;;;;7.90;5.47;;;;;;;1.47;57.61;101417.22;685710;28;861;-82
2023/03/16 00:04:10;;;;;;;7.90;5.70;;;;;;;1.47;57.17;101411.19;688252;28;1265;-82
2023/03/16 00:04:31;;;;;;;7.43;5.90;;;;;;;1.40;56.98;101403.78;685692;28;1226;-82
2023/03/16 00:04:53;;;;;;;6.93;5.78;;;;;;;1.33;57.48;101392.09;677723;29;1134;-82
2023/03/16 00:05:14;;;;;;;6.40;5.20;;;;;;;1.44;57.37;101419.56;685561;28;1991;-82
2023/03/16 00:05:35;;;;;;;7.03;5.30;;;;;;;1.33;57.08;101395.59;682962;28;1270;-82
2023/03/16 00:05:55;;;;;;;5.82;5.22;;;;;;;1.30;57.28;101397.94;683018;28;1080;-82
2023/03/16 00:06:16;;;;;;;7.65;5.32;;;;;;;1.32;57.58;101398.03;682963;29;1047;-82
2023/03/16 00:06:37;;;;;;;7.50;5.30;;;;;;;1.36;57.01;101412.94;688520;28;1012;-82
2023/03/16 00:06:57;;;;;;;7.60;5.40;;;;;;;1.34;57.62;101415.38;688059;28;1107;-82
2023/03/16 00:07:18;;;;;;;7.13;5.55;;;;;;;1.27;57.55;101392.56;677655;29;1137;-82
2023/03/16 00:07:40;;;;;;;6.75;5.30;;;;;;;1.22;57.26;101383.63;680269;29;1177;-82
2023/03/16 00:08:01;;;;;;;7.38;5.57;;;;;;;1.32;57.63;101401.53;683025;28;1251;-82
2023/03/16 00:08:22;;;;;;;7.07;5.70;;;;;;;1.21;57.40;101395.56;680384;29;1256;-84
2023/03/16 00:08:43;;;;;;;7.30;5.88;;;;;;;1.18;57.40;101391.84;680323;29;1249;-84
2023/03/16 00:09:03;;;;;;;7.47;5.50;;;;;;;1.23;57.91;101395.69;680218;29;1018;-84
2023/03/16 00:09:29;;;;;;;8.27;5.88;;;;;;;1.21;57.52;101397.22;682998;29;756;-84
2023/03/16 00:09:50;;;;;;;7.90;5.85;;;;;;;1.25;57.73;101409.53;682886;29;1205;-84
2023/03/16 00:10:12;;;;;;;7.13;5.82;;;;;;;1.12;57.64;101386.25;686603;28;1095;-84
2023/03/16 00:10:32;;;;;;;7.32;5.68;;;;;;;1.20;57.60;101405.72;692210;28;1400;-84
2023/03/16 00:10:53;;;;;;;7.68;5.70;;;;;;;1.14;57.93;101395.00;693818;28;999;-84
2023/03/16 00:11:14;;;;;;;6.88;5.57;;;;;;;1.22;57.96;101409.31;689835;28;1012;-84
2023/03/16 00:11:34;;;;;;;6.07;5.47;;;;;;;1.11;57.78;101397.31;685682;28;1228;-84
2023/03/16 00:12:02;;;;;;;7.63;5.83;;;;;;;1.21;57.75;101407.50;680420;29;999;-84
2023/03/16 00:12:22;;;;;;;8.00;6.07;;;;;;;1.07;58.06;101399.66;677548;29;1260;-84
2023/03/16 00:12:43;;;;;;;6.93;5.70;;;;;;;1.14;58.02;101401.00;680320;29;1183;-84
2023/03/16 00:13:04;;;;;;;6.68;5.57;;;;;;;1.15;58.00;101407.94;680313;29;1111;-84
2023/03/16 00:13:24;;;;;;;7.27;5.77;;;;;;;1.09;58.22;101399.75;675078;29;1195;-84
2023/03/16 00:13:45;;;;;;;6.78;5.60;;;;;;;1.10;57.99;101409.28;680223;29;1073;-84
2023/03/16 00:14:06;;;;;;;6.60;5.43;;;;;;;1.01;58.40;101391.47;680224;29;1167;-84
2023/03/16 00:14:26;;;;;;;5.90;5.30;;;;;;;1.03;58.09;101396.72;683009;29;1117;-85
2023/03/16 00:14:48;;;;;;;6.32;5.70;;;;;;;1.08;58.12;101410.81;683038;28;1361;-84
2023/03/16 00:15:10;;;;;;;6.20;5.60;;;;;;;1.12;58.31;101420.56;680246;29;987;-84
2023/03/16 00:15:31;;;;;;;6.28;5.68;;;;;;;1.01;58.24;101391.47;685730;28;1420;-84
2023/03/16 00:15:56;;;;;;;6.10;5.50;;;;;;;1.11;58.16;101411.06;680423;29;1003;-84
2023/03/16 00:16:17;;;;;;;6.50;5.45;;;;;;;1.01;58.18;101396.59;682974;28;1026;-84
2023/03/16 00:16:38;;;;;;;7.00;5.50;;;;;;;1.03;58.30;101404.44;683007;29;1019;-84
2023/03/16 00:16:59;;;;;;;6.57;5.60;;;;;;;0.95;58.45;101396.13;680163;29;1146;-85
2023/03/16 00:17:20;;;;;;;8.13;5.88;;;;;;;0.97;58.22;101398.81;685529;28;1086;-84
2023/03/16 00:17:40;;;;;;;7.47;5.40;;;;;;;0.93;58.40;101392.56;685540;28;1273;-84
2023/03/16 00:18:01;;;;;;;7.35;5.40;;;;;;;1.02;58.07;101405.22;680217;29;2041;-84
2023/03/16 00:18:26;;;;;;;5.88;5.28;;;;;;;0.94;58.52;101402.03;680285;28;1298;-84
2023/03/16 00:18:47;;;;;;;5.93;5.32;;;;;;;0.90;58.69;101389.75;681728;28;1094;-83
2023/03/16 00:19:07;;;;;;;5.93;5.22;;;;;;;0.94;58.50;101402.97;685456;28;982;-83
2023/03/16 00:19:28;;;;;;;7.05;5.50;;;;;;;0.96;58.90;101407.31;682799;28;1064;-84
2023/03/16 00:19:53;;;;;;;7.07;5.40;;;;;;;0.94;58.23;101399.47;685794;28;1111;-84
2023/03/16 00:20:17;;;;;;;6.97;5.00;;;;;;;0.97;58.59;101406.53;685453;28;1290;-84
2023/03/16 00:20:38;;;;;;;6.60;5.00;;;;;;;0.89;58.89;101393.97;680216;29;1122;-84
2023/03/16 00:21:04;;;;;;;5.95;5.05;;;;;;;0.91;58.82;101396.69;677681;28;1197;-84
2023/03/16 00:21:24;;;;;;;6.97;5.53;;;;;;;0.85;58.69;101388.50;685689;28;886;-84
2023/03/16 00:21:45;;;;;;;9.45;5.90;;;;;;;0.91;58.67;101406.97;685626;28;1215;-84
2023/03/16 00:22:06;;;;;;;8.65;5.70;;;;;;;0.87;58.56;101399.78;682934;29;1218;-84
2023/03/16 00:22:28;;;;;;;8.15;5.68;;;;;;;0.84;58.70;101395.28;683054;29;903;-84
2023/03/16 00:22:50;;;;;;;6.18;5.65;;;;;;;0.80;58.51;101398.41;685786;28;1081;-84
2023/03/16 00:23:10;;;;;;;6.80;6.10;;;;;;;0.82;58.81;101399.41;685482;28;1499;-84
2023/03/16 00:23:34;;;;;;;7.13;5.95;;;;;;;0.87;59.05;101404.91;685592;28;1355;-84
2023/03/16 00:23:55;;;;;;;6.88;5.57;;;;;;;0.76;58.90;101388.66;680331;29;1023;-84
2023/03/16 00:24:19;;;;;;;5.80;5.13;;;;;;;0.76;59.12;101393.81;685525;28;1140;-84
2023/03/16 00:24:44;;;;;;;6.22;5.25;;;;;;;0.80;58.73;101401.88;688247;28;1286;-84
2023/03/16 00:25:13;;;;;;;7.78;5.72;;;;;;;0.74;59.01;101396.28;687883;28;1947;-84
2023/03/16 00:25:33;;;;;;;7.20;5.78;;;;;;;0.71;59.30;101390.88;685597;28;1119;-84
2023/03/16 00:25:57;;;;;;;6.30;5.37;;;;;;;0.78;59.15;101406.00;680229;29;1147;-84
2023/03/16 00:26:18;;;;;;;5.78;5.18;;;;;;;0.71;59.11;101396.00;680062;29;1273;-84
2023/03/16 00:26:38;;;;;;;6.70;5.40;;;;;;;0.73;59.07;101391.00;685829;28;1391;-84
2023/03/16 00:26:59;;;;;;;6.20;5.40;;;;;;;0.74;59.21;101392.78;682849;29;1203;-84
2023/03/16 00:27:22;;;;;;;7.43;5.50;;;;;;;0.68;59.20;101390.66;677667;29;1378;-83
2023/03/16 00:27:43;;;;;;;7.16;5.68;;;;;;;0.65;59.33;101377.53;680281;28;1129;-84
2023/03/16 00:28:03;;;;;;;7.80;5.80;;;;;;;0.72;59.21;101400.38;682804;29;1264;-84
2023/03/16 00:28:26;;;;;;;6.72;5.88;;;;;;;0.64;59.28;101386.94;680399;29;771;-84
2023/03/16 00:28:47;;;;;;;6.45;5.80;;;;;;;0.73;59.52;101397.03;674981;29;1289;-84
2023/03/16 00:29:08;;;;;;;6.20;5.60;;;;;;;0.68;59.47;101395.78;682862;29;1399;-84
2023/03/16 00:29:33;;;;;;;6.55;5.55;;;;;;;0.66;59.42;101389.63;685576;28;1053;-84
2023/03/16 00:29:57;;;;;;;6.97;5.65;;;;;;;0.66;59.45;101385.38;682948;28;1368;-84
2023/03/16 00:30:17;;;;;;;7.00;5.50;;;;;;;0.60;59.31;101378.88;677602;29;1095;-84
2023/03/16 00:30:38;;;;;;;6.10;5.50;;;;;;;0.59;59.53;101377.97;685701;28;1150;-84
2023/03/16 00:30:59;;;;;;;6.10;5.50;;;;;;;0.61;59.20;101383.25;682892;29;1400;-83
2023/03/16 00:31:23;;;;;;;6.18;5.50;;;;;;;0.63;59.37;101389.38;690883;28;1105;-84
2023/03/16 00:31:44;;;;;;;6.78;5.25;;;;;;;0.61;59.32;101391.81;688307;28;1142;-84
2023/03/16 00:32:05;;;;;;;7.00;5.25;;;;;;;0.58;59.52;101385.53;680108;28;1218;-84
2023/03/16 00:32:28;;;;;;;7.13;5.40;;;;;;;0.58;59.60;101377.84;683001;29;1043;-84
2023/03/16 00:32:49;;;;;;;8.10;5.68;;;;;;;0.60;59.67;101384.91;680197;29;1273;-84
2023/03/16 00:33:11;;;;;;;7.75;5.70;;;;;;;0.67;60.11;101391.44;677569;29;1361;-84
2023/03/16 00:33:35;;;;;;;10.53;6.13;;;;;;;0.59;59.63;101387.38;677631;29;1119;-84
2023/03/16 00:33:58;;;;;;;9.60;6.00;;;;;;;0.55;59.66;101369.91;677567;29;1169;-84
2023/03/16 00:34:19;;;;;;;9.37;5.80;;;;;;;0.55;59.54;101375.03;677600;29;1076;-84
2023/03/16 00:34:39;;;;;;;6.10;5.50;;;;;;;0.54;59.80;101374.16;680430;29;1116;-84
2023/03/16 00:35:01;;;;;;;6.50;5.70;;;;;;;0.57;59.78;101376.97;680237;29;1117;-84
2023/03/16 00:35:24;;;;;;;6.88;5.90;;;;;;;0.57;59.67;101378.63;680247;28;1362;-83
2023/03/16 00:35:49;;;;;;;7.13;5.65;;;;;;;0.66;59.74;101395.66;682748;28;1557;-83
2023/03/16 00:36:11;;;;;;;7.32;5.70;;;;;;;0.53;59.79;101367.22;680222;28;1141;-84
2023/03/16 00:36:32;;;;;;;7.20;5.70;;;;;;;0.58;59.44;101382.97;677656;29;1173;-84
2023/03/16 00:36:54;;;;;;;7.18;5.78;;;;;;;0.57;59.78;101374.38;677465;29;1170;-84
2023/03/16 00:37:16;;;;;;;7.35;5.68;;;;;;;0.59;59.83;101379.66;677590;29;992;-84
2023/03/16 00:37:38;;;;;;;7.10;5.55;;;;;;;0.48;59.74;101363.41;683148;28;1484;-84
2023/03/16 00:37:58;;;;;;;7.43;5.20;;;;;;;0.53;59.80;101375.81;688119;28;1906;-85
2023/03/16 00:38:20;;;;;;;7.47;5.60;;;;;;;0.56;60.03;101379.41;682885;28;1238;-84
2023/03/16 00:38:45;;;;;;;6.00;5.40;;;;;;;0.53;60.10;101377.47;680284;28;1184;-84
2023/03/16 00:39:09;;;;;;;6.30;5.47;;;;;;;0.60;59.99;101390.03;685469;28;1151;-84
2023/03/16 00:39:34;;;;;;;6.00;5.40;;;;;;;0.55;60.04;101380.19;685664;28;1088;-84
2023/03/16 00:39:55;;;;;;;6.32;5.72;;;;;;;0.53;59.86;101377.47;680248;28;1230;-84
2023/03/16 00:40:16;;;;;;;6.88;6.18;;;;;;;0.51;60.13;101374.81;680244;29;1004;-84
2023/03/16 00:40:36;;;;;;;7.35;6.10;;;;;;;0.46;60.17;101373.53;680371;29;1125;-84
2023/03/16 00:40:57;;;;;;;7.63;5.90;;;;;;;0.51;59.95;101381.59;682832;28;1244;-84
2023/03/16 00:41:18;;;;;;;7.63;5.60;;;;;;;0.51;60.01;101382.53;682826;28;1455;-84
2023/03/16 00:41:41;;;;;;;7.50;5.68;;;;;;;0.48;59.94;101374.56;680230;28;1245;-83
2023/03/16 00:42:03;;;;;;;6.55;5.50;;;;;;;0.56;60.09;101394.81;682754;28;1287;-83
2023/03/16 00:42:26;;;;;;;5.90;5.30;;;;;;;0.47;60.04;101374.47;685435;28;1459;-84
2023/03/16 00:42:47;;;;;;;7.35;5.40;;;;;;;0.52;60.11;101379.16;680192;29;1141;-84
2023/03/16 00:43:07;;;;;;;7.15;5.20;;;;;;;0.52;60.09;101380.81;682806;28;1077;-84
2023/03/16 00:43:30;;;;;;;7.10;5.30;;;;;;;0.44;59.84;101369.97;685722;28;752;-84
2023/03/16 00:43:52;;;;;;;5.70;5.20;;;;;;;0.47;59.85;101377.91;680349;29;1051;-84
2023/03/16 00:44:13;;;;;;;6.22;5.60;;;;;;;0.52;60.31;101376.59;682869;28;1271;-84
2023/03/16 00:44:35;;;;;;;6.47;5.25;;;;;;;0.55;59.79;101382.75;680176;29;1579;-84
2023/03/16 00:44:57;;;;;;;6.28;4.85;;;;;;;0.45;60.12;101364.06;688210;28;1220;-84
2023/03/16 00:45:18;;;;;;;7.50;5.13;;;;;;;0.53;60.36;101383.53;682801;28;1294;-84
2023/03/16 00:45:38;;;;;;;8.57;5.07;;;;;;;0.44;60.33;101374.19;682944;28;1196;-84
2023/03/16 00:46:05;;;;;;;9.82;5.20;;;;;;;0.42;60.17;101374.09;682983;29;1188;-84
2023/03/16 00:46:26;;;;;;;8.75;5.20;;;;;;;0.46;60.30;101375.19;680311;29;1320;-83
2023/03/16 00:46:47;;;;;;;7.18;5.25;;;;;;;0.45;60.21;101369.19;677428;28;1450;-84
2023/03/16 00:47:08;;;;;;;5.65;4.97;;;;;;;0.44;60.18;101369.97;685508;28;1071;-84
2023/03/16 00:47:30;;;;;;;6.80;5.00;;;;;;;0.44;60.37;101371.63;691033;28;877;-84
2023/03/16 00:47:53;;;;;;;6.50;4.90;;;;;;;0.36;60.27;101359.06;685568;28;1069;-83
2023/03/16 00:48:13;;;;;;;6.85;5.15;;;;;;;0.33;60.57;101357.94;682623;28;1255;-84
2023/03/16 00:48:35;;;;;;;5.80;5.20;;;;;;;0.38;60.26;101366.91;685579;28;1252;-84
2023/03/16 00:48:56;;;;;;;7.10;5.43;;;;;;;0.31;60.27;101359.50;685458;28;1383;-84
2023/03/16 00:49:16;;;;;;;7.57;5.27;;;;;;;0.34;60.37;101359.72;682818;29;1131;-84
2023/03/16 00:49:57;;;;;;;7.43;5.40;;;;;;;0.39;60.59;101379.88;683025;29;1036;-84
2023/03/16 00:50:21;;;;;;;5.75;5.15;;;;;;;0.39;60.47;101386.66;682318;29;1196;-84
2023/03/16 00:50:42;;;;;;;5.30;4.80;;;;;;;0.37;60.55;101380.53;680836;28;1380;-84
2023/03/16 00:51:05;;;;;;;5.40;4.90;;;;;;;0.36;60.78;101379.63;686129;28;1021;-84
2023/03/16 00:51:26;;;;;;;6.90;5.85;;;;;;;0.26;60.39;101356.56;685551;28;1384;-84
2023/03/16 00:51:46;;;;;;;7.80;6.20;;;;;;;0.30;60.63;101363.72;685652;28;1184;-84
2023/03/16 00:52:08;;;;;;;7.87;5.97;;;;;;;0.27;61.06;101367.75;682707;28;1185;-84
2023/03/16 00:52:29;;;;;;;6.95;5.50;;;;;;;0.36;60.76;101381.31;683040;29;1033;-84
2023/03/16 00:52:52;;;;;;;6.95;5.43;;;;;;;0.29;60.59;101355.91;682926;28;749;-84
2023/03/16 00:53:13;;;;;;;7.70;5.35;;;;;;;0.29;60.62;101361.06;677102;29;1235;-84
2023/03/16 00:53:35;;;;;;;8.45;5.43;;;;;;;0.36;60.66;101369.34;677753;29;1116;-84
2023/03/16 00:53:55;;;;;;;7.60;5.25;;;;;;;0.36;60.49;101363.34;680331;29;1287;-84
2023/03/16 00:54:17;;;;;;;5.95;4.90;;;;;;;0.35;60.66;101356.41;674749;29;1319;-84
2023/03/16 00:54:51;;;;;;;5.30;4.80;;;;;;;0.35;60.48;101356.41;680314;29;1011;-83
2023/03/16 00:55:12;;;;;;;5.50;5.00;;;;;;;0.35;60.57;101356.41;682746;28;1463;-84
2023/03/16 00:55:33;;;;;;;5.73;5.10;;;;;;;0.38;60.40;101366.91;675064;29;1441;-84
2023/03/16 00:56:07;;;;;;;5.07;4.65;;;;;;;0.34;60.42;101360.63;677801;29;950;-84
2023/03/16 00:56:28;;;;;;;10.52;5.32;;;;;;;0.45;60.47;101381.13;682864;29;886;-83
2023/03/16 00:56:49;;;;;;;11.00;5.60;;;;;;;0.35;60.32;101359.84;682734;28;1231;-84
2023/03/16 00:57:11;;;;;;;7.93;5.30;;;;;;;0.31;60.32;101349.22;685323;28;1063;-84
2023/03/16 00:57:32;;;;;;;6.60;4.97;;;;;;;0.33;60.35;101369.13;688199;28;1228;-84
2023/03/16 00:57:53;;;;;;;7.63;5.15;;;;;;;0.42;60.45;101361.25;682777;28;1969;-84
2023/03/16 00:58:14;;;;;;;7.25;5.25;;;;;;;0.62;60.20;101361.91;682781;29;1365;-84
2023/03/16 00:59:00;;;;;;;9.27;5.18;;;;;;;0.88;59.41;101386.16;685103;28;1087;-84
2023/03/16 00:59:27;;;;;;;7.95;4.45;;;;;;;0.81;59.03;101369.38;685573;28;974;-84
2023/03/16 00:59:48;;;;;;;7.55;4.47;;;;;;;0.92;58.63;101385.63;682828;29;1096;-84
2023/03/16 01:00:13;;;;;;;7.95;4.50;;;;;;;0.82;58.95;101358.31;682707;29;1282;-84
2023/03/16 01:00:35;;;;;;;7.10;4.68;;;;;;;0.83;58.53;101369.50;682954;29;1045;-84
2023/03/16 01:00:58;;;;;;;7.20;4.90;;;;;;;0.83;58.23;101369.50;675003;29;1233;-84
2023/03/16 01:01:19;;;;;;;6.65;4.93;;;;;;;0.85;58.11;101366.25;674971;29;1028;-85
2023/03/16 01:01:40;;;;;;;7.85;5.10;;;;;;;0.88;58.35;101370.72;680801;28;1094;-84
2023/03/16 01:02:01;;;;;;;7.05;4.80;;;;;;;0.84;58.08;101373.84;682788;29;1085;-84
2023/03/16 01:02:23;;;;;;;7.10;4.57;;;;;;;0.83;58.29;101372.06;682791;29;1163;-84
2023/03/16 01:02:44;;;;;;;6.47;4.22;;;;;;;0.85;57.70;101368.81;680180;29;1320;-84
2023/03/16 01:03:04;;;;;;;6.97;4.50;;;;;;;0.89;57.80;101367.38;677473;29;1214;-84
2023/03/16 01:03:40;;;;;;;7.17;4.30;;;;;;;0.99;57.54;101379.28;680279;29;913;-84
2023/03/16 01:04:08;;;;;;;6.35;4.30;;;;;;;0.93;57.83;101366.84;680146;29;1066;-84
2023/03/16 01:04:28;;;;;;;6.63;4.50;;;;;;;0.97;57.87;101376.56;677749;29;934;-84
2023/03/16 01:04:51;;;;;;;6.95;4.68;;;;;;;0.96;57.57;101364.50;682769;28;1053;-84
2023/03/16 01:05:13;;;;;;;5.50;4.57;;;;;;;0.98;57.60;101372.34;685340;28;1261;-84
2023/03/16 01:05:39;;;;;;;7.90;4.60;;;;;;;0.98;57.77;101373.25;680178;28;1700;-83
2023/03/16 01:06:09;;;;;;;12.68;5.15;;;;;;;1.01;57.63;101368.34;688240;28;1096;-83
2023/03/16 01:06:30;;;;;;;13.73;5.05;;;;;;;1.11;57.75;101379.31;683004;29;772;-84
2023/03/16 01:06:51;;;;;;;11.27;4.50;;;;;;;1.04;57.48;101371.13;682714;29;1151;-84
2023/03/16 01:07:13;;;;;;;8.50;4.80;;;;;;;1.13;57.76;101378.66;685369;28;1099;-84
2023/03/16 01:07:35;;;;;;;7.28;4.93;;;;;;;1.07;57.44;101371.38;680233;29;1140;-84
2023/03/16 01:07:55;;;;;;;7.28;4.88;;;;;;;1.11;57.71;101381.88;682787;28;1200;-84
2023/03/16 01:08:17;;;;;;;9.05;4.97;;;;;;;1.03;57.45;101359.06;685389;28;1361;-84
2023/03/16 01:08:39;;;;;;;9.70;5.10;;;;;;;1.00;57.55;101361.41;682892;28;1174;-84
2023/03/16 01:09:04;;;;;;;10.10;5.13;;;;;;;1.05;57.40;101375.47;685318;28;1224;-84
2023/03/16 01:09:24;;;;;;;7.57;4.88;;;;;;;1.00;57.78;101357.91;685639;28;821;-84
2023/03/16 01:09:45;;;;;;;8.80;5.10;;;;;;;1.03;57.41;101374.47;677521;29;1146;-84
2023/03/16 01:10:07;;;;;;;7.90;5.05;;;;;;;1.13;57.48;101388.03;680212;29;1045;-84
2023/03/16 01:10:27;;;;;;;7.78;5.10;;;;;;;1.01;57.50;101373.47;685651;28;879;-85
2023/03/16 01:10:48;;;;;;;6.83;4.63;;;;;;;0.98;57.55;101362.97;682825;29;1084;-84
2023/03/16 01:11:22;;;;;;;6.50;4.60;;;;;;;1.07;57.64;101379.09;685632;28;777;-84
2023/03/16 01:11:43;;;;;;;7.65;4.47;;;;;;;1.06;57.57;101382.44;682744;29;1126;-83
2023/03/16 01:12:10;;;;;;;7.47;4.50;;;;;;;1.12;57.71;101391.38;680005;29;1111;-84
2023/03/16 01:12:30;;;;;;;5.72;4.30;;;;;;;0.99;57.55;101369.91;677581;29;1088;-84
2023/03/16 01:12:54;;;;;;;5.38;4.47;;;;;;;0.99;57.27;101359.63;674962;29;1070;-84
2023/03/16 01:13:27;;;;;;;8.35;4.88;;;;;;;1.04;57.48;101381.41;680135;28;1127;-84
2023/03/16 01:13:49;;;;;;;8.95;5.15;;;;;;;1.03;57.50;101377.03;682766;29;1105;-84
2023/03/16 01:14:23;;;;;;;6.00;4.70;;;;;;;1.04;57.51;101378.84;680280;28;1488;-84
2023/03/16 01:14:45;;;;;;;6.88;4.88;;;;;;;1.09;57.61;101386.91;688260;28;1040;-84
2023/03/16 01:15:06;;;;;;;7.47;5.20;;;;;;;1.06;57.73;101382.44;685224;28;1387;-84
2023/03/16 01:15:27;;;;;;;5.70;4.70;;;;;;;0.99;57.88;101374.13;680378;29;1126;-84
2023/03/16 01:15:51;;;;;;;5.13;4.53;;;;;;;1.08;57.99;101395.38;688163;28;1486;-84
2023/03/16 01:16:12;;;;;;;5.35;4.65;;;;;;;0.93;57.88;101366.84;682865;29;1168;-84
2023/03/16 01:16:32;;;;;;;5.80;4.70;;;;;;;0.99;57.74;101375.03;682931;28;1076;-83
2023/03/16 01:16:53;;;;;;;7.70;5.07;;;;;;;0.92;57.85;101365.06;682465;28;1203;-84
2023/03/16 01:17:16;;;;;;;7.80;5.00;;;;;;;0.95;57.51;101373.00;674901;29;1162;-83
2023/03/16 01:17:36;;;;;;;10.88;5.10;;;;;;;1.05;57.98;101390.91;680419;29;1187;-84
2023/03/16 01:17:57;;;;;;;9.30;4.95;;;;;;;1.02;57.74;101389.81;682876;29;1910;-84
2023/03/16 01:18:19;;;;;;;7.47;4.65;;;;;;;0.91;57.97;101373.56;685495;28;1224;-82
2023/03/16 01:18:46;;;;;;;5.13;4.22;;;;;;;0.93;57.68;101374.56;685349;28;1248;-83
2023/03/16 01:19:06;;;;;;;6.13;4.53;;;;;;;0.96;57.81;101379.03;682642;28;1284;-83
2023/03/16 01:19:27;;;;;;;6.20;4.50;;;;;;;0.97;57.56;101380.84;682984;28;807;-83
2023/03/16 01:19:48;;;;;;;5.45;4.20;;;;;;;1.05;57.72;101393.47;677470;29;1397;-82
2023/03/16 01:20:11;;;;;;;6.32;4.40;;;;;;;0.96;57.67;101374.78;680136;29;1031;-83
2023/03/16 01:20:32;;;;;;;6.85;4.60;;;;;;;1.00;57.80;101375.91;682887;28;1148;-83
2023/03/16 01:20:53;;;;;;;8.00;4.93;;;;;;;0.97;58.23;101374.00;682724;29;1230;-83
2023/03/16 01:21:13;;;;;;;7.73;4.63;;;;;;;0.94;58.30;101366.97;672427;29;1095;-82
2023/03/16 01:21:37;;;;;;;7.32;4.60;;;;;;;0.96;57.88;101369.66;680259;29;1057;-83
2023/03/16 01:21:57;;;;;;;5.97;4.75;;;;;;;1.10;58.17;101387.81;682895;29;1113;-83
2023/03/16 01:22:18;;;;;;;6.50;4.85;;;;;;;0.98;58.15;101373.25;685316;28;1149;-83
2023/03/16 01:22:39;;;;;;;6.85;4.85;;;;;;;0.99;58.06;101372.47;677669;29;1114;-82
2023/03/16 01:22:59;;;;;;;6.88;4.70;;;;;;;1.08;57.98;101393.72;680214;29;1085;-83
2023/03/16 01:23:20;;;;;;;8.48;4.90;;;;;;;1.01;57.99;101372.56;682661;28;1322;-83
2023/03/16 01:24:09;;;;;;;8.60;4.90;;;;;;;1.11;57.92;101392.16;688194;28;815;-82
2023/03/16 01:24:30;;;;;;;6.80;4.97;;;;;;;0.96;57.74;101374.78;682644;28;1351;-82
2023/03/16 01:24:50;;;;;;;9.45;5.25;;;;;;;1.00;57.71;101387.09;688223;28;1199;-83
2023/03/16 01:25:12;;;;;;;9.35;5.10;;;;;;;1.03;57.95;101389.91;682700;28;1283;-83
2023/03/16 01:25:35;;;;;;;10.75;5.10;;;;;;;1.01;57.69;101383.75;684700;28;1097;-82
2023/03/16 01:25:56;;;;;;;8.65;5.10;;;;;;;1.08;57.97;101398.88;682881;29;869;-83
2023/03/16 01:26:17;;;;;;;8.25;5.25;;;;;;;0.99;57.77;101385.31;685295;28;1365;-83
2023/03/16 01:26:40;;;;;;;5.93;5.00;;;;;;;0.98;57.77;101380.97;677607;28;1477;-83
2023/03/16 01:27:02;;;;;;;5.90;4.77;;;;;;;0.91;57.93;101381.25;679944;29;1175;-83
2023/03/16 01:27:25;;;;;;;6.15;4.40;;;;;;;0.84;58.24;101379.88;682508;29;1163;-83
2023/03/16 01:27:54;;;;;;;5.72;4.28;;;;;;;0.84;58.40;101381.56;682430;29;1150;-83
2023/03/16 01:28:15;;;;;;;5.68;4.70;;;;;;;0.89;58.54;101393.97;685328;28;1103;-82
2023/03/16 01:28:53;;;;;;;5.67;4.70;;;;;;;0.84;58.72;101394.41;685648;28;748;-83
2023/03/16 01:29:14;;;;;;;6.82;4.72;;;;;;;0.76;58.47;101381.88;685318;28;1375;-82
2023/03/16 01:29:35;;;;;;;7.07;4.90;;;;;;;0.76;58.50;101381.88;677547;29;1220;-82
2023/03/16 01:29:55;;;;;;;7.80;5.20;;;;;;;0.81;58.48;101377.97;674908;29;1274;-82
2023/03/16 01:30:16;;;;;;;6.88;5.35;;;;;;;0.84;58.31;101374.72;682662;28;1179;-82
2023/03/16 01:30:37;;;;;;;6.73;5.20;;;;;;;0.94;58.57;101386.63;685521;28;1176;-83
2023/03/16 01:31:00;;;;;;;6.50;5.20;;;;;;;0.91;58.41;101381.25;682711;29;1050;-83
2023/03/16 01:31:21;;;;;;;6.90;4.93;;;;;;;0.95;57.96;101383.28;685367;28;1015;-83
2023/03/16 01:31:42;;;;;;;7.00;4.85;;;;;;;0.87;58.38;101363.81;682836;28;1294;-82
2023/03/16 01:32:03;;;;;;;7.60;4.80;;;;;;;0.98;58.18;101380.97;688085;28;1033;-83
2023/03/16 01:32:24;;;;;;;6.75;5.00;;;;;;;0.87;58.35;101364.72;690999;28;838;-83
2023/03/16 01:32:45;;;;;;;6.88;5.20;;;;;;;0.89;58.45;101365.72;688151;28;1195;-82
2023/03/16 01:33:07;;;;;;;7.03;5.05;;;;;;;1.01;58.40;101378.63;682849;28;1029;-83
2023/03/16 01:33:28;;;;;;;8.43;4.90;;;;;;;1.00;58.33;101375.91;683038;29;1226;-82
2023/03/16 01:33:49;;;;;;;9.40;5.05;;;;;;;0.85;58.33;101349.94;688050;28;1101;-83
2023/03/16 01:34:17;;;;;;;10.27;4.80;;;;;;;0.92;58.13;101367.63;688201;28;1148;-82
2023/03/16 01:34:38;;;;;;;7.70;4.45;;;;;;;0.89;58.56;101352.88;683005;29;1077;-83
2023/03/16 01:34:59;;;;;;;5.95;4.32;;;;;;;0.94;58.10;101358.34;675124;29;1095;-83
2023/03/16 01:35:25;;;;;;;5.30;4.32;;;;;;;0.92;58.31;101359.91;688147;28;1127;-82
2023/03/16 01:36:22;;;;;;;7.22;4.38;;;;;;;1.00;58.17;101370.78;682810;28;2006;-82
2023/03/16 01:36:50;;;;;;;6.82;4.93;;;;;;;0.93;58.22;101356.56;682908;28;1311;-83
2023/03/16 01:37:20;;;;;;;9.88;5.00;;;;;;;0.90;58.27;101348.63;685250;28;2140;-82
2023/03/16 01:37:52;;;;;;;9.75;5.32;;;;;;;0.91;58.17;101355.56;685433;28;1902;-82
2023/03/16 01:38:17;;;;;;;6.45;5.10;;;;;;;0.94;58.53;101366.97;682739;28;1199;-83
2023/03/16 01:38:38;;;;;;;5.75;4.75;;;;;;;0.89;58.49;101351.97;675124;29;1175;-83
2023/03/16 01:38:59;;;;;;;6.68;4.80;;;;;;;0.87;58.55;101348.38;680248;29;1181;-82
2023/03/16 01:39:22;;;;;;;6.97;4.75;;;;;;;0.94;58.46;101355.78;688032;28;898;-83
2023/03/16 01:39:43;;;;;;;6.65;4.70;;;;;;;0.93;58.44;101361.72;685507;28;1120;-83
2023/03/16 01:40:05;;;;;;;6.63;4.72;;;;;;;0.88;58.56;101348.50;680111;28;1172;-83
2023/03/16 01:40:26;;;;;;;6.05;4.82;;;;;;;0.93;58.66;101359.13;688102;28;1874;-83
2023/03/16 01:40:50;;;;;;;6.80;4.90;;;;;;;0.91;58.36;101360.69;685244;28;1239;-83
2023/03/16 01:41:11;;;;;;;7.63;4.70;;;;;;;0.93;58.79;101354.00;682791;29;1021;-82
2023/03/16 01:41:32;;;;;;;8.02;4.80;;;;;;;0.84;58.53;101354.19;685477;28;1345;-83
2023/03/16 01:41:52;;;;;;;7.63;4.40;;;;;;;0.83;58.83;101338.66;688197;28;1162;-83
2023/03/16 01:42:13;;;;;;;6.45;4.50;;;;;;;0.83;58.72;101346.38;688020;28;1167;-83
2023/03/16 01:43:01;;;;;;;7.57;4.40;;;;;;;0.80;58.57;101332.47;682786;29;1146;-82
2023/03/16 01:43:26;;;;;;;6.47;4.45;;;;;;;0.80;58.67;101335.06;685602;28;986;-82
2023/03/16 01:43:50;;;;;;;7.18;4.70;;;;;;;0.84;58.99;101343.03;688150;28;1095;-82
2023/03/16 01:44:14;;;;;;;6.40;4.80;;;;;;;0.89;58.79;101342.59;682777;29;1201;-83
2023/03/16 01:45:00;;;;;;;6.03;4.63;;;;;;;0.79;59.10;101325.56;680760;28;1383;-83
2023/03/16 01:46:02;;;;;;;5.78;4.32;;;;;;;0.93;58.89;101339.47;685464;28;872;-82
2023/03/16 01:46:28;;;;;;;6.78;4.70;;;;;;;0.86;58.65;101323.47;688925;28;871;-83
2023/03/16 01:46:49;;;;;;;6.25;4.70;;;;;;;0.91;58.71;101335.00;685157;28;1217;-83
2023/03/16 01:47:12;;;;;;;6.38;4.50;;;;;;;0.81;58.86;101318.84;679492;28;1137;-82
2023/03/16 01:47:37;;;;;;;6.85;4.53;;;;;;;0.85;58.69;101319.09;685584;28;1110;-82
2023/03/16 01:47:59;;;;;;;6.15;4.50;;;;;;;0.83;58.61;101331.81;685464;28;1216;-82
2023/03/16 01:48:25;;;;;;;7.07;4.60;;;;;;;0.90;58.87;101328.94;685385;28;1096;-83
2023/03/16 01:48:58;;;;;;;6.85;4.57;;;;;;;0.98;58.70;101342.41;685419;28;991;-82
2023/03/16 01:49:32;;;;;;;7.65;4.75;;;;;;;1.03;58.85;101342.75;680820;28;1375;-83
2023/03/16 01:49:55;;;;;;;10.13;4.88;;;;;;;1.03;58.84;101342.75;682810;28;1201;-82
2023/03/16 01:50:19;;;;;;;10.82;4.95;;;;;;;0.98;58.74;101326.97;682764;29;1165;-82
2023/03/16 01:50:41;;;;;;;8.00;4.80;;;;;;;1.03;58.99;101338.50;682737;28;1218;-82
2023/03/16 01:51:10;;;;;;;6.35;4.90;;;;;;;0.96;58.70;101320.81;680168;29;1158;-82
2023/03/16 01:52:02;;;;;;;8.75;5.50;;;;;;;1.05;58.79;101333.47;677661;28;880;-82
2023/03/16 01:52:32;;;;;;;7.95;4.82;;;;;;;1.04;58.52;101331.69;682535;28;1281;-83